»·PEaware :: N107MR CYKA-KGEG

N107MR :: CYKA-KGEG

FLIGHT INFORMATION

Flight Status: Arrived
Operator: Privately registered:
United States
More flights under this callsign
Pilot: Michael R. (16974)
Aircraft: ECLIPSE 500
(EA50)
More flights by this aircraft type
Origin: CYKA Kamloops
Canada
Destination: KGEG Spokane Intl
United States
More flights between these airports :: More routes between these airports
Route: +YDC GEG
File this flight plan on PilotEdge
Remarks:
Altitude:
(Current/Filed)
6,000ft
Speed:
(Current/Filed)
105kts
Departed: 09-Feb-18 10:12 PM
Arrived: 09-Feb-18 11:04 PM
Distance/Time
Traveled:
217nm/0:52
Distance/Time
To Go:
Arrived

Flight Plot

Page will automatically refresh every two minutes.

Flight plan parsing failed; only flown route is shown


Map Options




Map Legend


Flown Route
Filed Route
Departure Airport
Arrival Airport
Navaid (VOR, NDB)
Fix

Horizontal Profiles

Position Reports

Time Latitude Longitude Heading Altitude Ground
Speed
09-Feb-18 22:15 50.705497 -120.465070 103 1135ft 0kts
09-Feb-18 22:16 50.705497 -120.465070 103 1135ft 0kts
09-Feb-18 22:17 50.705497 -120.465070 103 1135ft 0kts
09-Feb-18 22:18 50.705383 -120.464312 101 1135ft 37kts
09-Feb-18 22:19 50.695846 -120.406356 119 2754ft 166kts
09-Feb-18 22:20 50.691967 -120.399585 142 3026ft 168kts
09-Feb-18 22:21 50.675699 -120.395109 184 3672ft 170kts
09-Feb-18 22:22 50.628682 -120.399123 185 5514ft 173kts
09-Feb-18 22:23 50.579488 -120.404279 185 8080ft 184kts
09-Feb-18 22:24 50.527768 -120.411034 185 10813ft 193kts
09-Feb-18 22:25 50.473858 -120.421166 184 13306ft 201kts
09-Feb-18 22:26 50.417318 -120.426172 179 15605ft 209kts
09-Feb-18 22:27 50.358683 -120.426351 177 17717ft 216kts
09-Feb-18 22:28 50.297779 -120.424316 176 19629ft 225kts
09-Feb-18 22:29 50.235433 -120.421288 177 21559ft 224kts
09-Feb-18 22:30 50.172530 -120.417824 179 23199ft 230kts
09-Feb-18 22:31 50.107623 -120.414253 180 24664ft 240kts
09-Feb-18 22:32 50.041128 -120.410497 181 26109ft 243kts
09-Feb-18 22:33 49.972629 -120.406643 182 27399ft 250kts
09-Feb-18 22:34 49.902386 -120.402697 183 28602ft 257kts
09-Feb-18 22:35 49.829246 -120.398783 183 28980ft 303kts
09-Feb-18 22:36 49.736607 -120.393626 182 28977ft 360kts
09-Feb-18 22:37 49.632480 -120.387727 183 28976ft 381kts
09-Feb-18 22:38 49.526839 -120.381866 183 28977ft 382kts
09-Feb-18 22:39 49.420732 -120.375974 182 28978ft 382kts
09-Feb-18 22:40 49.331671 -120.288015 135 28979ft 393kts
09-Feb-18 22:41 49.255128 -120.171694 133 28981ft 384kts
09-Feb-18 22:42 49.179534 -120.053081 133 28982ft 394kts
09-Feb-18 22:43 49.103557 -119.933814 133 28908ft 394kts
09-Feb-18 22:44 49.027185 -119.814292 133 28909ft 394kts
09-Feb-18 22:45 48.950558 -119.694900 133 28911ft 394kts
09-Feb-18 22:46 48.875813 -119.578957 133 28902ft 394kts
09-Feb-18 22:47 48.799131 -119.460579 133 28903ft 394kts
09-Feb-18 22:48 48.723380 -119.344040 134 28847ft 404kts
09-Feb-18 22:49 48.645097 -119.224417 134 28795ft 400kts
09-Feb-18 22:50 48.567428 -119.106150 134 28796ft 399kts
09-Feb-18 22:51 48.490025 -118.988863 134 27869ft 390kts
09-Feb-18 22:52 48.414530 -118.874960 134 26534ft 377kts
09-Feb-18 22:53 48.341789 -118.765692 134 25145ft 364kts
09-Feb-18 22:54 48.272164 -118.661545 134 23762ft 347kts
09-Feb-18 22:55 48.204101 -118.560018 134 22336ft 346kts
09-Feb-18 22:56 48.137369 -118.461083 134 20870ft 333kts
09-Feb-18 22:57 48.072852 -118.365720 134 19400ft 320kts
09-Feb-18 22:58 48.013015 -118.277571 135 17965ft 309kts
09-Feb-18 22:59 47.953093 -118.189586 135 16482ft 300kts
09-Feb-18 23:00 47.895448 -118.105230 135 14931ft 289kts
09-Feb-18 23:01 47.839815 -118.023733 135 13302ft 280kts
09-Feb-18 23:02 47.807781 -117.927146 92 11218ft 262kts
09-Feb-18 23:03 47.800042 -117.822570 93 8710ft 249kts
09-Feb-18 23:03 47.793226 -117.739974 93 6618ft 235kts
09-Feb-18 23:05 47.784415 -117.638207 93 5993ft 220kts
09-Feb-18 23:06 47.769949 -117.547856 120 5991ft 230kts
09-Feb-18 23:06 47.741065 -117.485636 124 5710ft 228kts
09-Feb-18 23:08 47.681464 -117.447719 199 3835ft 181kts
09-Feb-18 23:08 47.655144 -117.482177 227 2810ft 131kts
09-Feb-18 23:09 47.631934 -117.517127 224 2360ft 112kts
09-Feb-18 23:10 47.620906 -117.532251 133 2359ft 0kts
09-Feb-18 23:11 47.620709 -117.531937 132 2359ft 9kts
09-Feb-18 23:12 47.620805 -117.527228 337 2359ft 0kts
09-Feb-18 23:13 47.620805 -117.527228 337 2359ft 0kts
09-Feb-18 23:14 47.620805 -117.527228 337 2359ft 0kts
09-Feb-18 23:15 47.620805 -117.527228 337 2359ft 0kts
09-Feb-18 23:16 47.620805 -117.527228 337 2359ft 0kts
09-Feb-18 23:17 47.620805 -117.527228 337 2359ft 0kts
09-Feb-18 23:18 47.620805 -117.527228 337 2359ft 0kts
09-Feb-18 23:19 47.620805 -117.527228 337 2359ft 0kts
09-Feb-18 23:20 47.620805 -117.527228 337 2359ft 0kts
09-Feb-18 23:21 47.620805 -117.527228 337 2359ft 0kts
09-Feb-18 23:22 47.620805 -117.527228 337 2359ft 0kts
09-Feb-18 23:23 47.620805 -117.527228 337 2359ft 0kts
09-Feb-18 23:24 47.620805 -117.527228 337 2359ft 0kts
09-Feb-18 23:25 47.620805 -117.527228 337 2359ft 0kts

Navigation Log

Ident Type
Flight plan parsing failed, navigation log unavailable